createdAt,value
2022-09-02T00:01:59.849Z,15.86
2022-09-02T00:04:27.629Z,15.86
2022-09-02T00:06:54.987Z,15.82
2022-09-02T00:09:24.009Z,15.81
2022-09-02T00:11:52.398Z,15.81
2022-09-02T00:14:24.829Z,15.77
2022-09-02T00:16:51.807Z,15.75
2022-09-02T00:19:22.222Z,15.72
2022-09-02T00:21:49.889Z,15.72
2022-09-02T00:24:17.158Z,15.68
2022-09-02T00:26:44.581Z,15.66
2022-09-02T00:29:12.112Z,15.63
2022-09-02T00:31:39.115Z,15.61
2022-09-02T00:34:05.976Z,15.58
2022-09-02T00:36:33.969Z,15.57
2022-09-02T00:39:00.733Z,15.54
2022-09-02T00:41:29.153Z,15.52
2022-09-02T00:43:55.831Z,15.49
2022-09-02T00:46:25.036Z,15.48
2022-09-02T00:49:17.263Z,15.44
2022-09-02T00:51:53.122Z,15.41
2022-09-02T00:54:22.553Z,15.39
2022-09-02T00:56:55.756Z,15.38
2022-09-02T00:59:51.046Z,15.35
2022-09-02T01:02:18.803Z,15.32
2022-09-02T01:04:45.633Z,15.29
2022-09-02T01:07:12.620Z,15.29
2022-09-02T01:09:40.220Z,15.28
2022-09-02T01:12:07.881Z,15.25
2022-09-02T01:14:35.242Z,15.23
2022-09-02T01:17:03.021Z,15.21
2022-09-02T01:19:37.475Z,15.19
2022-09-02T01:22:15.637Z,15.18
2022-09-02T01:24:42.441Z,15.16
2022-09-02T01:27:09.324Z,15.15
2022-09-02T01:29:36.496Z,15.12
2022-09-02T01:32:03.609Z,15.10
2022-09-02T01:34:31.759Z,15.08
2022-09-02T01:36:58.544Z,15.04
2022-09-02T01:39:25.536Z,15.01
2022-09-02T01:41:52.516Z,14.98
2022-09-02T01:44:19.354Z,14.95
2022-09-02T01:46:49.221Z,14.94
2022-09-02T01:49:16.008Z,14.88
2022-09-02T01:51:43.429Z,14.85
2022-09-02T01:54:11.050Z,14.82
2022-09-02T01:56:38.393Z,14.80
2022-09-02T01:59:05.553Z,14.76
2022-09-02T02:01:32.428Z,14.75
2022-09-02T02:03:59.860Z,14.73
2022-09-02T02:06:27.020Z,14.71
2022-09-02T02:08:54.847Z,14.70
2022-09-02T02:11:25.239Z,14.67
2022-09-02T02:13:57.142Z,14.66
2022-09-02T02:16:24.322Z,14.66
2022-09-02T02:18:51.253Z,14.65
2022-09-02T02:21:19.110Z,14.65
2022-09-02T02:23:47.745Z,14.65
2022-09-02T02:26:14.444Z,14.63
2022-09-02T02:28:41.410Z,14.64
2022-09-02T02:31:09.432Z,14.63
2022-09-02T02:33:36.801Z,14.62
2022-09-02T02:36:05.822Z,14.53
2022-09-02T02:38:37.422Z,14.61
2022-09-02T02:41:04.634Z,14.62
2022-09-02T02:43:31.334Z,14.60
2022-09-02T02:45:58.144Z,14.60
2022-09-02T02:48:25.398Z,14.59
2022-09-02T02:50:52.458Z,14.59
2022-09-02T02:53:19.330Z,14.58
2022-09-02T02:55:49.813Z,14.55
2022-09-02T02:58:18.525Z,14.55
2022-09-02T03:00:48.744Z,14.55
2022-09-02T03:03:17.113Z,14.54
2022-09-02T03:05:44.117Z,14.52
2022-09-02T03:08:11.373Z,14.51
2022-09-02T03:10:40.499Z,14.51
2022-09-02T03:13:09.445Z,14.50
2022-09-02T03:15:39.220Z,14.50
2022-09-02T03:18:06.296Z,14.49
2022-09-02T03:20:33.804Z,14.49
2022-09-02T03:23:03.916Z,14.46
2022-09-02T03:25:36.123Z,14.48
2022-09-02T03:28:11.515Z,14.46
2022-09-02T03:30:39.740Z,14.47
2022-09-02T03:33:07.232Z,14.46
2022-09-02T03:35:39.602Z,14.44
2022-09-02T03:38:07.695Z,14.45
2022-09-02T03:40:35.151Z,14.34
2022-09-02T03:43:03.119Z,14.40
2022-09-02T03:45:31.265Z,14.42
2022-09-02T03:48:03.435Z,14.40
2022-09-02T03:50:37.386Z,14.39
2022-09-02T03:53:05.052Z,14.37
2022-09-02T03:55:32.100Z,14.36
2022-09-02T03:57:59.050Z,14.35
2022-09-02T04:00:27.292Z,14.33
2022-09-02T04:02:55.022Z,14.33
2022-09-02T04:05:22.948Z,14.31
2022-09-02T04:07:53.039Z,14.30
2022-09-02T04:10:21.402Z,14.27
2022-09-02T04:12:51.490Z,14.26
2022-09-02T04:15:19.964Z,14.24
2022-09-02T04:17:49.299Z,14.22
2022-09-02T04:20:19.253Z,14.21
2022-09-02T04:22:46.074Z,14.19
2022-09-02T04:25:13.735Z,14.17
2022-09-02T04:27:40.728Z,14.16
2022-09-02T04:30:09.337Z,14.14
2022-09-02T04:32:40.892Z,14.13
2022-09-02T04:35:09.415Z,14.13
2022-09-02T04:37:38.515Z,14.11
2022-09-02T04:40:06.140Z,14.13
2022-09-02T04:42:33.879Z,14.10
2022-09-02T04:45:00.628Z,14.10
2022-09-02T04:47:27.861Z,14.09
2022-09-02T04:49:55.647Z,14.10
2022-09-02T04:52:23.040Z,14.08
2022-09-02T04:54:50.503Z,14.08
2022-09-02T04:57:17.878Z,14.10
2022-09-02T04:59:45.180Z,14.09
2022-09-02T05:02:12.337Z,14.09
2022-09-02T05:04:40.137Z,14.00
2022-09-02T05:07:13.796Z,14.08
2022-09-02T05:09:44.558Z,14.10
2022-09-02T05:12:11.335Z,14.10
2022-09-02T05:14:44.807Z,14.11
2022-09-02T05:17:11.623Z,14.11
2022-09-02T05:19:42.154Z,14.14
2022-09-02T05:22:09.294Z,14.17
2022-09-02T05:24:39.794Z,14.19
2022-09-02T05:27:10.359Z,14.22
2022-09-02T05:29:37.401Z,14.26
2022-09-02T05:32:05.127Z,14.30
2022-09-02T05:34:33.235Z,14.35
2022-09-02T05:37:02.831Z,14.38
2022-09-02T05:39:31.735Z,14.43
2022-09-02T05:41:59.812Z,14.48
2022-09-02T05:44:26.624Z,14.51
2022-09-02T05:46:54.205Z,14.56
2022-09-02T05:49:21.036Z,14.62
2022-09-02T05:51:58.482Z,14.67
2022-09-02T05:54:35.847Z,14.69
2022-09-02T05:57:13.303Z,14.76
2022-09-02T05:59:45.367Z,14.81
2022-09-02T06:02:20.550Z,14.86
2022-09-02T06:04:49.634Z,14.93
2022-09-02T06:07:19.008Z,14.99
2022-09-02T06:09:48.843Z,15.03
2022-09-02T06:12:17.387Z,15.08
2022-09-02T06:14:44.767Z,15.15
2022-09-02T06:17:12.239Z,15.20
2022-09-02T06:19:45.710Z,15.27
2022-09-02T06:22:13.201Z,15.32
2022-09-02T06:24:42.050Z,15.41
2022-09-02T06:27:13.769Z,15.48
2022-09-02T06:29:45.864Z,15.54
2022-09-02T06:32:15.000Z,15.62
2022-09-02T06:34:42.104Z,15.66
2022-09-02T06:37:09.614Z,15.73
2022-09-02T06:39:40.093Z,15.80
2022-09-02T06:42:07.375Z,15.85
2022-09-02T06:44:44.522Z,15.92
2022-09-02T06:47:11.338Z,15.97
2022-09-02T06:49:38.226Z,16.04
2022-09-02T06:52:05.795Z,16.09
2022-09-02T06:54:36.214Z,16.15
2022-09-02T06:57:11.377Z,16.20
2022-09-02T06:59:38.727Z,16.25
2022-09-02T07:02:06.077Z,16.30
2022-09-02T07:04:34.090Z,16.33
2022-09-02T07:07:03.775Z,16.38
2022-09-02T07:09:34.319Z,16.42
2022-09-02T07:12:09.052Z,16.49
2022-09-02T07:14:42.493Z,16.53
2022-09-02T07:17:13.103Z,16.58
2022-09-02T07:19:39.862Z,16.61
2022-09-02T07:22:07.385Z,16.67
2022-09-02T07:24:39.988Z,16.73
2022-09-02T07:27:07.603Z,16.76
2022-09-02T07:29:35.132Z,16.82
2022-09-02T07:32:02.346Z,16.88
2022-09-02T07:34:29.806Z,16.93
2022-09-02T07:37:01.848Z,16.98
2022-09-02T07:39:30.249Z,17.04
2022-09-02T07:41:57.199Z,17.13
2022-09-02T07:44:24.402Z,17.15
2022-09-02T07:46:53.150Z,17.22
2022-09-02T07:49:24.110Z,17.17
2022-09-02T07:51:51.794Z,17.31
2022-09-02T07:54:23.536Z,17.37
2022-09-02T07:56:52.074Z,17.47
2022-09-02T07:59:19.681Z,17.50
2022-09-02T08:01:47.001Z,17.55
2022-09-02T08:04:14.745Z,17.58
2022-09-02T08:06:41.901Z,17.66
2022-09-02T08:09:10.673Z,17.75
2022-09-02T08:11:43.049Z,17.88
2022-09-02T08:14:12.298Z,17.90
2022-09-02T08:16:39.954Z,18.01
2022-09-02T08:19:08.358Z,18.01
2022-09-02T08:21:35.165Z,18.05
2022-09-02T08:24:02.236Z,18.09
2022-09-02T08:26:30.028Z,18.19
2022-09-02T08:28:57.093Z,18.27
2022-09-02T08:31:24.078Z,18.34
2022-09-02T08:33:50.791Z,18.37
2022-09-02T08:36:17.711Z,18.45
2022-09-02T08:38:44.594Z,18.51
2022-09-02T08:41:22.624Z,18.54
2022-09-02T08:43:52.570Z,18.60
2022-09-02T08:46:22.391Z,18.67
2022-09-02T08:49:15.044Z,18.72
2022-09-02T08:51:51.068Z,18.83
2022-09-02T08:54:51.603Z,18.94
2022-09-02T08:57:18.490Z,18.93
2022-09-02T08:59:45.305Z,19.07
2022-09-02T09:02:26.705Z,19.18
2022-09-02T09:05:20.241Z,19.26
2022-09-02T09:07:46.901Z,19.32
2022-09-02T09:10:36.042Z,19.38
2022-09-02T09:13:21.008Z,19.44
2022-09-02T09:15:47.785Z,19.47
2022-09-02T09:18:19.234Z,19.54
2022-09-02T09:20:46.757Z,19.65
2022-09-02T09:23:36.095Z,19.67
2022-09-02T09:26:16.693Z,19.73
2022-09-02T09:28:46.654Z,19.79
2022-09-02T09:31:17.692Z,19.87
2022-09-02T09:34:04.657Z,19.93
2022-09-02T09:36:40.636Z,20.00
2022-09-02T09:39:21.057Z,20.08
2022-09-02T09:41:49.416Z,20.13
2022-09-02T09:44:34.376Z,20.22
2022-09-02T09:47:02.386Z,20.27
2022-09-02T09:49:32.031Z,20.30
2022-09-02T09:51:59.202Z,20.36
2022-09-02T09:54:27.726Z,20.48
2022-09-02T09:56:55.802Z,20.48
2022-09-02T09:59:43.499Z,20.57
2022-09-02T10:02:27.559Z,20.61
2022-09-02T10:05:10.488Z,20.64
2022-09-02T10:07:40.521Z,20.68
2022-09-02T10:10:19.933Z,20.73
2022-09-02T10:12:49.351Z,20.80
2022-09-02T10:15:25.088Z,20.90
2022-09-02T10:18:05.123Z,20.97
2022-09-02T10:21:15.612Z,21.08
2022-09-02T10:24:21.055Z,21.20
2022-09-02T10:26:50.518Z,21.27
2022-09-02T10:29:35.479Z,21.30
2022-09-02T10:32:18.895Z,21.33
2022-09-02T10:35:25.488Z,21.34
2022-09-02T10:38:07.094Z,21.42
2022-09-02T10:41:18.823Z,21.51
2022-09-02T10:43:45.809Z,21.62
2022-09-02T10:46:18.045Z,21.66
2022-09-02T10:48:55.842Z,21.73
2022-09-02T10:51:59.548Z,21.76
2022-09-02T10:54:41.375Z,21.86
2022-09-02T10:57:26.671Z,21.92
2022-09-02T11:00:14.313Z,21.99
2022-09-02T11:03:13.195Z,22.00
2022-09-02T11:05:53.858Z,22.03
2022-09-02T11:08:41.047Z,22.03
2022-09-02T11:11:19.052Z,22.03
2022-09-02T11:13:57.696Z,22.01
2022-09-02T11:16:33.736Z,22.12
2022-09-02T11:19:07.355Z,22.16
2022-09-02T11:21:52.735Z,22.22
2022-09-02T11:24:31.314Z,22.24
2022-09-02T11:27:03.263Z,22.28
2022-09-02T11:29:37.141Z,22.31
2022-09-02T11:32:21.769Z,22.41
2022-09-02T11:34:55.808Z,22.51
2022-09-02T11:37:33.336Z,22.62
2022-09-02T11:40:33.400Z,22.70
2022-09-02T11:43:15.362Z,22.76
2022-09-02T11:46:06.313Z,22.84
2022-09-02T11:49:17.416Z,22.87
2022-09-02T11:51:58.704Z,22.99
2022-09-02T11:54:33.416Z,23.08
2022-09-02T11:57:04.060Z,23.09
2022-09-02T11:59:50.899Z,23.20
2022-09-02T12:02:36.241Z,23.23
2022-09-02T12:05:30.715Z,23.26
2022-09-02T12:08:00.011Z,23.32
2022-09-02T12:10:41.872Z,23.32
2022-09-02T12:13:11.343Z,23.34
2022-09-02T12:15:40.965Z,23.38
2022-09-02T12:18:14.220Z,23.41
2022-09-02T12:20:40.964Z,23.45
2022-09-02T12:23:10.086Z,23.52
2022-09-02T12:25:49.382Z,23.66
2022-09-02T12:28:24.188Z,23.71
2022-09-02T12:30:55.141Z,23.81
2022-09-02T12:33:35.548Z,23.73
2022-09-02T12:36:04.437Z,23.81
2022-09-02T12:38:38.206Z,23.93
2022-09-02T12:41:05.063Z,23.88
2022-09-02T12:43:45.406Z,23.86
2022-09-02T12:46:40.441Z,23.87
2022-09-02T12:49:27.329Z,23.84
2022-09-02T12:52:22.237Z,23.89
2022-09-02T12:54:50.397Z,23.85
2022-09-02T12:57:18.912Z,23.81
2022-09-02T12:59:47.760Z,23.81
2022-09-02T13:02:14.373Z,23.83
2022-09-02T13:05:18.381Z,23.89
2022-09-02T13:08:20.248Z,23.93
2022-09-02T13:11:05.618Z,24.01
2022-09-02T13:13:58.121Z,24.08
2022-09-02T13:16:39.572Z,24.13
2022-09-02T13:19:27.435Z,24.13
2022-09-02T13:22:03.748Z,24.17
2022-09-02T13:24:33.299Z,24.17
2022-09-02T13:27:20.327Z,24.18
2022-09-02T13:29:59.334Z,24.18
2022-09-02T13:32:29.148Z,24.22
2022-09-02T13:34:59.265Z,24.32
2022-09-02T13:37:37.193Z,24.37
2022-09-02T13:40:27.129Z,24.37
2022-09-02T13:42:59.039Z,24.40
2022-09-02T13:45:27.944Z,24.42
2022-09-02T13:47:57.696Z,24.48
2022-09-02T13:50:30.289Z,24.53
2022-09-02T13:55:53.784Z,24.62
2022-09-02T13:58:29.292Z,24.66
2022-09-02T14:01:17.397Z,24.73
2022-09-02T14:03:49.443Z,24.72
2022-09-02T14:06:18.410Z,24.75
2022-09-02T14:08:45.763Z,24.81
2022-09-02T14:11:17.609Z,24.80
2022-09-02T14:13:48.571Z,24.80
2022-09-02T14:16:29.516Z,24.76
2022-09-02T14:19:07.553Z,24.73
2022-09-02T14:21:35.684Z,24.74
2022-09-02T14:24:03.091Z,24.79
2022-09-02T14:26:38.557Z,24.82
2022-09-02T14:29:06.498Z,24.88
2022-09-02T14:31:33.794Z,24.91
2022-09-02T14:34:01.642Z,24.95
2022-09-02T14:36:33.741Z,24.94
2022-09-02T14:39:18.015Z,25.10
2022-09-02T14:41:50.508Z,25.21
2022-09-02T14:44:21.912Z,25.32
2022-09-02T14:46:56.998Z,25.47
2022-09-02T14:49:29.938Z,25.59
2022-09-02T14:51:59.581Z,25.81
2022-09-02T14:54:39.511Z,25.86
2022-09-02T14:57:26.602Z,26.02
2022-09-02T14:59:54.260Z,26.17
2022-09-02T15:02:26.606Z,26.26
2022-09-02T15:04:57.945Z,26.39
2022-09-02T15:07:25.851Z,26.57
2022-09-02T15:09:52.576Z,26.62
2022-09-02T15:12:34.112Z,26.97
2022-09-02T15:15:01.109Z,27.30
2022-09-02T15:17:28.143Z,27.47
2022-09-02T15:19:54.936Z,27.59
2022-09-02T15:22:24.466Z,27.78
2022-09-02T15:24:51.888Z,28.01
2022-09-02T15:27:18.981Z,28.17
2022-09-02T15:29:49.273Z,28.30
2022-09-02T15:32:16.380Z,28.42
2022-09-02T15:34:43.225Z,28.52
2022-09-02T15:37:13.039Z,28.51
2022-09-02T15:39:40.292Z,28.57
2022-09-02T15:42:07.097Z,28.59
2022-09-02T15:44:33.850Z,28.67
2022-09-02T15:47:00.585Z,28.65
2022-09-02T15:49:27.373Z,28.67
2022-09-02T15:51:55.243Z,28.75
2022-09-02T15:54:24.198Z,28.84
2022-09-02T15:56:55.866Z,28.89
2022-09-02T15:59:23.120Z,29.02
2022-09-02T16:01:52.273Z,29.04
2022-09-02T16:04:19.300Z,29.12
2022-09-02T16:06:48.020Z,29.19
2022-09-02T16:09:17.207Z,29.33
2022-09-02T16:11:46.341Z,29.36
2022-09-02T16:14:13.177Z,29.38
2022-09-02T16:16:39.971Z,29.36
2022-09-02T16:19:06.979Z,29.30
2022-09-02T16:21:34.341Z,29.20
2022-09-02T16:24:01.085Z,29.18
2022-09-02T16:26:29.842Z,29.20
2022-09-02T16:28:59.884Z,29.16
2022-09-02T16:31:29.162Z,29.14
2022-09-02T16:33:58.362Z,29.14
2022-09-02T16:36:26.848Z,29.17
2022-09-02T16:39:00.425Z,29.21
2022-09-02T16:41:30.129Z,29.27
2022-09-02T16:43:59.310Z,29.34
2022-09-02T16:46:27.465Z,29.37
2022-09-02T16:48:54.731Z,29.34
2022-09-02T16:51:22.921Z,29.32
2022-09-02T16:54:03.640Z,29.31
2022-09-02T16:56:31.357Z,29.36
2022-09-02T16:59:03.198Z,29.30
2022-09-02T17:01:32.587Z,29.23
2022-09-02T17:04:00.450Z,29.01
2022-09-02T17:06:28.084Z,28.70
2022-09-02T17:08:55.367Z,28.56
2022-09-02T17:11:28.604Z,28.35
2022-09-02T17:14:03.806Z,28.12
2022-09-02T17:16:37.399Z,27.88
2022-09-02T17:19:05.174Z,27.63
2022-09-02T17:21:32.005Z,27.36
2022-09-02T17:24:05.499Z,27.03
2022-09-02T17:29:06.514Z,26.45
2022-09-02T17:31:33.950Z,26.14
2022-09-02T17:34:02.478Z,25.82
2022-09-02T17:36:31.004Z,25.49
2022-09-02T17:39:00.327Z,25.16
2022-09-02T17:41:27.258Z,24.85
2022-09-02T17:43:53.882Z,24.54
2022-09-02T17:46:21.140Z,24.25
2022-09-02T17:49:12.861Z,23.97
2022-09-02T17:51:34.920Z,23.66
2022-09-02T17:54:01.851Z,23.41
2022-09-02T17:56:39.595Z,23.15
2022-09-02T17:59:27.762Z,22.91
2022-09-02T18:02:09.383Z,22.63
2022-09-02T18:05:03.002Z,22.41
2022-09-02T18:07:57.041Z,22.16
2022-09-02T18:10:23.658Z,21.99
2022-09-02T18:12:50.245Z,21.80
2022-09-02T18:15:18.476Z,21.64
2022-09-02T18:17:49.568Z,21.36
2022-09-02T18:20:41.850Z,21.26
2022-09-02T18:23:54.855Z,21.08
2022-09-02T18:26:52.434Z,20.91
2022-09-02T18:30:08.739Z,20.70
2022-09-02T18:33:02.825Z,20.56
2022-09-02T18:36:07.193Z,20.41
2022-09-02T18:38:46.950Z,20.29
2022-09-02T18:41:28.851Z,20.16
2022-09-02T18:44:20.848Z,20.07
2022-09-02T18:46:57.054Z,19.95
2022-09-02T18:49:25.839Z,19.86
2022-09-02T18:51:58.805Z,19.77
2022-09-02T18:54:33.984Z,19.67
2022-09-02T18:57:08.011Z,19.58
2022-09-02T18:59:47.199Z,19.51
2022-09-02T19:02:28.383Z,19.43
2022-09-02T19:04:58.232Z,19.36
2022-09-02T19:12:51.941Z,19.11
2022-09-02T19:15:19.212Z,19.03
2022-09-02T19:17:45.762Z,18.97
2022-09-02T19:20:12.306Z,18.91
2022-09-02T19:22:46.879Z,18.84
2022-09-02T19:25:19.218Z,18.79
2022-09-02T19:27:48.268Z,18.74
2022-09-02T19:30:17.923Z,18.68
2022-09-02T19:32:50.902Z,18.63
2022-09-02T19:35:20.027Z,18.59
2022-09-02T19:37:51.185Z,18.54
2022-09-02T19:40:22.622Z,18.48
2022-09-02T19:42:49.212Z,18.43
2022-09-02T19:45:16.801Z,18.40
2022-09-02T19:48:05.965Z,18.35
2022-09-02T19:50:30.443Z,18.31
2022-09-02T19:52:57.022Z,18.27
2022-09-02T19:55:23.608Z,18.22
2022-09-02T19:57:50.218Z,18.17
2022-09-02T20:00:17.359Z,18.12
2022-09-02T20:02:43.913Z,18.08
2022-09-02T20:05:12.888Z,18.04
2022-09-02T20:07:39.852Z,18.01
2022-09-02T20:10:07.939Z,17.98
2022-09-02T20:12:35.134Z,17.84
2022-09-02T20:15:02.290Z,17.89
2022-09-02T20:17:28.817Z,17.87
2022-09-02T20:19:55.704Z,17.84
2022-09-02T20:22:22.521Z,17.81
2022-09-02T20:24:49.112Z,17.77
2022-09-02T20:27:35.919Z,17.73
2022-09-02T20:30:15.358Z,17.70
2022-09-02T20:33:14.832Z,17.66
2022-09-02T20:36:05.768Z,17.61
2022-09-02T20:38:43.951Z,17.58
2022-09-02T20:41:27.178Z,17.55
2022-09-02T20:44:37.653Z,17.50
2022-09-02T20:47:41.245Z,17.44
2022-09-02T20:50:33.168Z,17.39
2022-09-02T20:53:27.762Z,17.36
2022-09-02T20:56:02.084Z,17.36
2022-09-02T20:58:36.677Z,17.31
2022-09-02T21:01:07.504Z,17.28
2022-09-02T21:03:58.333Z,17.24
2022-09-02T21:06:30.478Z,17.19
2022-09-02T21:09:08.815Z,17.17
2022-09-02T21:11:51.903Z,17.13
2022-09-02T21:14:23.806Z,17.10
2022-09-02T21:17:00.879Z,17.06
2022-09-02T21:19:41.548Z,17.02
2022-09-02T21:22:19.822Z,16.98
2022-09-02T21:25:00.831Z,16.95
2022-09-02T21:28:05.071Z,16.90
2022-09-02T21:30:38.675Z,16.87
2022-09-02T21:33:10.146Z,16.85
2022-09-02T21:35:47.429Z,16.81
2022-09-02T21:38:40.912Z,16.78
2022-09-02T21:41:35.410Z,16.76
2022-09-02T21:44:23.081Z,16.73
2022-09-02T21:47:18.656Z,16.67
2022-09-02T21:50:06.289Z,16.62
2022-09-02T21:52:55.786Z,16.59
2022-09-02T21:55:35.016Z,16.56
2022-09-02T21:58:10.831Z,16.53
2022-09-02T22:00:45.675Z,16.51
2022-09-02T22:03:38.466Z,16.45
2022-09-02T22:06:13.620Z,16.44
2022-09-02T22:08:49.115Z,16.40
2022-09-02T22:11:29.624Z,16.36
2022-09-02T22:13:59.683Z,16.35
2022-09-02T22:16:52.669Z,16.29
2022-09-02T22:19:22.041Z,16.26
2022-09-02T22:21:52.303Z,16.24
2022-09-02T22:24:22.303Z,16.22
2022-09-02T22:26:53.009Z,16.20
2022-09-02T22:29:48.049Z,16.17
2022-09-02T22:32:19.048Z,16.17
2022-09-02T22:34:55.854Z,16.17
2022-09-02T22:37:28.220Z,16.17
2022-09-02T22:39:56.239Z,16.16
2022-09-02T22:42:33.098Z,16.13
2022-09-02T22:45:02.274Z,16.13
2022-09-02T22:47:32.902Z,16.16
2022-09-02T22:50:02.258Z,16.13
2022-09-02T22:52:34.501Z,16.14
2022-09-02T22:55:01.105Z,16.15
2022-09-02T22:58:00.958Z,16.15
2022-09-02T23:00:32.160Z,16.17
2022-09-02T23:03:14.261Z,16.17
2022-09-02T23:05:58.044Z,16.18
2022-09-02T23:08:24.736Z,16.17
2022-09-02T23:11:07.656Z,16.17
2022-09-02T23:13:52.726Z,16.17
2022-09-02T23:16:56.644Z,16.16
2022-09-02T23:19:32.244Z,16.13
2022-09-02T23:22:07.516Z,16.13
2022-09-02T23:24:46.713Z,16.11
2022-09-02T23:27:28.260Z,16.10
2022-09-02T23:29:54.940Z,16.09
2022-09-02T23:32:48.598Z,16.08
2022-09-02T23:35:22.928Z,16.08
2022-09-02T23:38:11.001Z,16.11
2022-09-02T23:40:54.149Z,16.11
2022-09-02T23:43:20.900Z,16.13
2022-09-02T23:45:48.020Z,16.13
2022-09-02T23:48:24.766Z,16.13
2022-09-02T23:51:26.635Z,16.13
2022-09-02T23:54:21.316Z,16.12
2022-09-02T23:57:09.115Z,16.14
2022-09-02T23:59:41.771Z,16.15
